sensor_id;sensor_type;location;lat;lon;timestamp;P1;durP1;ratioP1;P2;durP2;ratioP2
58250;SDS011;51449;51.676;5.812;2023-03-15T00:02:03;1.80;;;0.80;;
58250;SDS011;51449;51.676;5.812;2023-03-15T00:04:26;2.00;;;0.93;;
58250;SDS011;51449;51.676;5.812;2023-03-15T00:06:48;2.37;;;0.87;;
58250;SDS011;51449;51.676;5.812;2023-03-15T00:09:10;1.40;;;1.00;;
58250;SDS011;51449;51.676;5.812;2023-03-15T00:11:31;1.60;;;1.03;;
58250;SDS011;51449;51.676;5.812;2023-03-15T00:13:53;1.03;;;0.70;;
58250;SDS011;51449;51.676;5.812;2023-03-15T00:16:15;1.00;;;0.60;;
58250;SDS011;51449;51.676;5.812;2023-03-15T00:18:38;1.33;;;0.53;;
58250;SDS011;51449;51.676;5.812;2023-03-15T00:20:59;1.30;;;0.40;;
58250;SDS011;51449;51.676;5.812;2023-03-15T00:23:22;0.97;;;0.30;;
58250;SDS011;51449;51.676;5.812;2023-03-15T00:25:44;1.13;;;0.50;;
58250;SDS011;51449;51.676;5.812;2023-03-15T00:28:10;2.30;;;0.60;;
58250;SDS011;51449;51.676;5.812;2023-03-15T00:30:34;0.70;;;0.50;;
58250;SDS011;51449;51.676;5.812;2023-03-15T00:32:56;0.90;;;0.50;;
58250;SDS011;51449;51.676;5.812;2023-03-15T00:35:18;0.77;;;0.60;;
58250;SDS011;51449;51.676;5.812;2023-03-15T00:37:41;0.83;;;0.53;;
58250;SDS011;51449;51.676;5.812;2023-03-15T00:40:03;0.60;;;0.60;;
58250;SDS011;51449;51.676;5.812;2023-03-15T00:42:27;1.85;;;0.70;;
58250;SDS011;51449;51.676;5.812;2023-03-15T00:44:49;2.27;;;0.83;;
58250;SDS011;51449;51.676;5.812;2023-03-15T00:47:11;1.77;;;0.73;;
58250;SDS011;51449;51.676;5.812;2023-03-15T00:49:35;1.30;;;0.73;;
58250;SDS011;51449;51.676;5.812;2023-03-15T00:51:56;1.07;;;0.77;;
58250;SDS011;51449;51.676;5.812;2023-03-15T00:54:18;1.43;;;0.80;;
58250;SDS011;51449;51.676;5.812;2023-03-15T00:56:40;2.97;;;0.70;;
58250;SDS011;51449;51.676;5.812;2023-03-15T00:59:02;1.60;;;0.80;;
58250;SDS011;51449;51.676;5.812;2023-03-15T01:01:25;1.03;;;0.67;;
58250;SDS011;51449;51.676;5.812;2023-03-15T01:03:49;1.27;;;0.80;;
58250;SDS011;51449;51.676;5.812;2023-03-15T01:06:16;2.43;;;1.10;;
58250;SDS011;51449;51.676;5.812;2023-03-15T01:08:44;1.73;;;0.80;;
58250;SDS011;51449;51.676;5.812;2023-03-15T01:11:07;0.90;;;0.70;;
58250;SDS011;51449;51.676;5.812;2023-03-15T01:13:33;2.63;;;0.90;;
58250;SDS011;51449;51.676;5.812;2023-03-15T01:15:56;1.57;;;1.00;;
58250;SDS011;51449;51.676;5.812;2023-03-15T01:18:18;2.07;;;1.20;;
58250;SDS011;51449;51.676;5.812;2023-03-15T01:20:41;1.40;;;1.23;;
58250;SDS011;51449;51.676;5.812;2023-03-15T01:23:05;1.17;;;1.07;;
58250;SDS011;51449;51.676;5.812;2023-03-15T01:25:27;2.50;;;1.70;;
58250;SDS011;51449;51.676;5.812;2023-03-15T01:27:48;1.77;;;1.30;;
58250;SDS011;51449;51.676;5.812;2023-03-15T01:30:10;1.43;;;1.30;;
58250;SDS011;51449;51.676;5.812;2023-03-15T01:32:32;2.33;;;1.30;;
58250;SDS011;51449;51.676;5.812;2023-03-15T01:34:54;1.70;;;1.30;;
58250;SDS011;51449;51.676;5.812;2023-03-15T01:37:17;2.33;;;1.63;;
58250;SDS011;51449;51.676;5.812;2023-03-15T01:39:39;2.07;;;1.87;;
58250;SDS011;51449;51.676;5.812;2023-03-15T01:42:02;2.25;;;1.73;;
58250;SDS011;51449;51.676;5.812;2023-03-15T01:44:44;1.70;;;1.50;;
58250;SDS011;51449;51.676;5.812;2023-03-15T01:47:18;2.30;;;0.93;;
58250;SDS011;51449;51.676;5.812;2023-03-15T01:49:40;1.13;;;0.93;;
58250;SDS011;51449;51.676;5.812;2023-03-15T01:52:28;1.43;;;0.80;;
58250;SDS011;51449;51.676;5.812;2023-03-15T01:54:57;1.53;;;0.70;;
58250;SDS011;51449;51.676;5.812;2023-03-15T01:57:33;1.43;;;0.70;;
58250;SDS011;51449;51.676;5.812;2023-03-15T02:00:07;1.05;;;0.50;;
58250;SDS011;51449;51.676;5.812;2023-03-15T02:02:52;0.60;;;0.60;;
58250;SDS011;51449;51.676;5.812;2023-03-15T02:05:24;1.53;;;0.70;;
58250;SDS011;51449;51.676;5.812;2023-03-15T02:07:56;1.00;;;0.80;;
58250;SDS011;51449;51.676;5.812;2023-03-15T02:10:22;1.07;;;0.70;;
58250;SDS011;51449;51.676;5.812;2023-03-15T02:12:53;0.60;;;0.60;;
58250;SDS011;51449;51.676;5.812;2023-03-15T02:15:17;0.90;;;0.70;;
58250;SDS011;51449;51.676;5.812;2023-03-15T02:17:41;1.43;;;0.80;;
58250;SDS011;51449;51.676;5.812;2023-03-15T02:23:10;1.07;;;0.83;;
58250;SDS011;51449;51.676;5.812;2023-03-15T02:28:13;1.10;;;0.90;;
58250;SDS011;51449;51.676;5.812;2023-03-15T02:30:39;1.40;;;1.13;;
58250;SDS011;51449;51.676;5.812;2023-03-15T02:33:01;1.63;;;0.93;;
58250;SDS011;51449;51.676;5.812;2023-03-15T02:35:31;1.83;;;1.20;;
58250;SDS011;51449;51.676;5.812;2023-03-15T02:37:54;1.97;;;1.30;;
58250;SDS011;51449;51.676;5.812;2023-03-15T02:40:20;1.80;;;1.20;;
58250;SDS011;51449;51.676;5.812;2023-03-15T02:42:44;2.13;;;1.20;;
58250;SDS011;51449;51.676;5.812;2023-03-15T02:45:11;1.30;;;1.20;;
58250;SDS011;51449;51.676;5.812;2023-03-15T02:47:33;1.20;;;1.10;;
58250;SDS011;51449;51.676;5.812;2023-03-15T02:49:55;1.73;;;1.03;;
58250;SDS011;51449;51.676;5.812;2023-03-15T02:52:17;2.37;;;1.40;;
58250;SDS011;51449;51.676;5.812;2023-03-15T02:54:39;1.80;;;1.30;;
58250;SDS011;51449;51.676;5.812;2023-03-15T02:57:03;1.90;;;1.40;;
58250;SDS011;51449;51.676;5.812;2023-03-15T02:59:26;2.00;;;1.40;;
58250;SDS011;51449;51.676;5.812;2023-03-15T03:01:48;2.73;;;1.80;;
58250;SDS011;51449;51.676;5.812;2023-03-15T03:04:09;2.40;;;1.67;;
58250;SDS011;51449;51.676;5.812;2023-03-15T03:06:31;2.77;;;1.80;;
58250;SDS011;51449;51.676;5.812;2023-03-15T03:08:55;2.80;;;2.10;;
58250;SDS011;51449;51.676;5.812;2023-03-15T03:11:17;3.23;;;1.90;;
58250;SDS011;51449;51.676;5.812;2023-03-15T03:13:39;2.97;;;2.27;;
58250;SDS011;51449;51.676;5.812;2023-03-15T03:16:02;5.03;;;2.55;;
58250;SDS011;51449;51.676;5.812;2023-03-15T03:18:25;3.90;;;2.70;;
58250;SDS011;51449;51.676;5.812;2023-03-15T03:20:49;3.33;;;2.40;;
58250;SDS011;51449;51.676;5.812;2023-03-15T03:23:11;3.47;;;2.53;;
58250;SDS011;51449;51.676;5.812;2023-03-15T03:25:35;2.53;;;2.17;;
58250;SDS011;51449;51.676;5.812;2023-03-15T03:27:57;3.43;;;2.33;;
58250;SDS011;51449;51.676;5.812;2023-03-15T03:30:21;4.00;;;2.50;;
58250;SDS011;51449;51.676;5.812;2023-03-15T03:32:45;4.27;;;3.00;;
58250;SDS011;51449;51.676;5.812;2023-03-15T03:35:07;4.03;;;2.93;;
58250;SDS011;51449;51.676;5.812;2023-03-15T03:37:29;4.10;;;3.00;;
58250;SDS011;51449;51.676;5.812;2023-03-15T03:39:57;5.77;;;3.30;;
58250;SDS011;51449;51.676;5.812;2023-03-15T03:42:19;4.60;;;3.57;;
58250;SDS011;51449;51.676;5.812;2023-03-15T03:44:41;4.97;;;3.50;;
58250;SDS011;51449;51.676;5.812;2023-03-15T03:47:03;5.47;;;3.60;;
58250;SDS011;51449;51.676;5.812;2023-03-15T03:49:25;6.63;;;3.63;;
58250;SDS011;51449;51.676;5.812;2023-03-15T03:51:46;6.63;;;3.93;;
58250;SDS011;51449;51.676;5.812;2023-03-15T03:54:08;6.80;;;4.27;;
58250;SDS011;51449;51.676;5.812;2023-03-15T03:56:30;5.43;;;3.80;;
58250;SDS011;51449;51.676;5.812;2023-03-15T03:58:52;7.30;;;4.17;;
58250;SDS011;51449;51.676;5.812;2023-03-15T04:01:20;6.10;;;4.20;;
58250;SDS011;51449;51.676;5.812;2023-03-15T04:03:45;7.35;;;3.95;;
58250;SDS011;51449;51.676;5.812;2023-03-15T04:08:35;7.67;;;4.40;;
58250;SDS011;51449;51.676;5.812;2023-03-15T04:10:57;11.03;;;4.53;;
58250;SDS011;51449;51.676;5.812;2023-03-15T04:13:23;7.03;;;4.40;;
58250;SDS011;51449;51.676;5.812;2023-03-15T04:15:46;7.77;;;4.90;;
58250;SDS011;51449;51.676;5.812;2023-03-15T04:18:09;6.77;;;4.40;;
58250;SDS011;51449;51.676;5.812;2023-03-15T04:20:33;6.83;;;4.73;;
58250;SDS011;51449;51.676;5.812;2023-03-15T04:22:56;10.07;;;4.90;;
58250;SDS011;51449;51.676;5.812;2023-03-15T04:25:28;8.03;;;5.67;;
58250;SDS011;51449;51.676;5.812;2023-03-15T04:28:02;8.82;;;5.38;;
58250;SDS011;51449;51.676;5.812;2023-03-15T04:30:42;10.43;;;5.33;;
58250;SDS011;51449;51.676;5.812;2023-03-15T04:33:20;10.57;;;5.67;;
58250;SDS011;51449;51.676;5.812;2023-03-15T04:36:07;12.93;;;5.80;;
58250;SDS011;51449;51.676;5.812;2023-03-15T04:38:29;9.67;;;5.63;;
58250;SDS011;51449;51.676;5.812;2023-03-15T04:41:11;12.00;;;6.90;;
58250;SDS011;51449;51.676;5.812;2023-03-15T04:46:36;10.20;;;6.67;;
58250;SDS011;51449;51.676;5.812;2023-03-15T04:49:16;13.40;;;6.70;;
58250;SDS011;51449;51.676;5.812;2023-03-15T04:51:57;13.53;;;7.20;;
58250;SDS011;51449;51.676;5.812;2023-03-15T04:54:34;12.80;;;6.90;;
58250;SDS011;51449;51.676;5.812;2023-03-15T04:57:06;13.03;;;7.63;;
58250;SDS011;51449;51.676;5.812;2023-03-15T05:00:04;12.20;;;7.30;;
58250;SDS011;51449;51.676;5.812;2023-03-15T05:02:46;14.70;;;8.47;;
58250;SDS011;51449;51.676;5.812;2023-03-15T05:05:43;13.63;;;8.03;;
58250;SDS011;51449;51.676;5.812;2023-03-15T05:08:26;15.67;;;8.43;;
58250;SDS011;51449;51.676;5.812;2023-03-15T05:11:06;14.10;;;7.67;;
58250;SDS011;51449;51.676;5.812;2023-03-15T05:13:39;14.47;;;7.83;;
58250;SDS011;51449;51.676;5.812;2023-03-15T05:16:09;16.23;;;8.23;;
58250;SDS011;51449;51.676;5.812;2023-03-15T05:19:03;15.03;;;8.47;;
58250;SDS011;51449;51.676;5.812;2023-03-15T05:24:24;16.00;;;8.70;;
58250;SDS011;51449;51.676;5.812;2023-03-15T05:27:01;18.43;;;8.83;;
58250;SDS011;51449;51.676;5.812;2023-03-15T05:29:44;16.70;;;8.63;;
58250;SDS011;51449;51.676;5.812;2023-03-15T05:32:18;16.30;;;8.90;;
58250;SDS011;51449;51.676;5.812;2023-03-15T05:34:54;16.33;;;8.97;;
58250;SDS011;51449;51.676;5.812;2023-03-15T05:37:25;19.27;;;9.70;;
58250;SDS011;51449;51.676;5.812;2023-03-15T05:40:10;16.67;;;8.90;;
58250;SDS011;51449;51.676;5.812;2023-03-15T05:42:56;19.17;;;9.67;;
58250;SDS011;51449;51.676;5.812;2023-03-15T05:45:44;16.13;;;9.40;;
58250;SDS011;51449;51.676;5.812;2023-03-15T05:48:32;19.40;;;9.93;;
58250;SDS011;51449;51.676;5.812;2023-03-15T05:51:10;20.27;;;10.77;;
58250;SDS011;51449;51.676;5.812;2023-03-15T05:53:52;18.43;;;9.73;;
58250;SDS011;51449;51.676;5.812;2023-03-15T05:56:30;16.97;;;9.83;;
58250;SDS011;51449;51.676;5.812;2023-03-15T05:59:19;18.63;;;10.57;;
58250;SDS011;51449;51.676;5.812;2023-03-15T06:01:59;19.60;;;10.37;;
58250;SDS011;51449;51.676;5.812;2023-03-15T06:04:28;17.90;;;10.17;;
58250;SDS011;51449;51.676;5.812;2023-03-15T06:06:51;22.00;;;11.20;;
58250;SDS011;51449;51.676;5.812;2023-03-15T06:09:14;20.07;;;10.90;;
58250;SDS011;51449;51.676;5.812;2023-03-15T06:11:38;20.35;;;12.23;;
58250;SDS011;51449;51.676;5.812;2023-03-15T06:14:03;22.63;;;12.40;;
58250;SDS011;51449;51.676;5.812;2023-03-15T06:16:31;21.93;;;12.13;;
58250;SDS011;51449;51.676;5.812;2023-03-15T06:18:55;27.60;;;14.25;;
58250;SDS011;51449;51.676;5.812;2023-03-15T06:21:17;25.70;;;14.00;;
58250;SDS011;51449;51.676;5.812;2023-03-15T06:23:38;22.70;;;13.30;;
58250;SDS011;51449;51.676;5.812;2023-03-15T06:26:00;22.63;;;13.13;;
58250;SDS011;51449;51.676;5.812;2023-03-15T06:28:23;24.00;;;13.17;;
58250;SDS011;51449;51.676;5.812;2023-03-15T06:30:49;23.53;;;12.60;;
58250;SDS011;51449;51.676;5.812;2023-03-15T06:33:14;23.97;;;12.87;;
58250;SDS011;51449;51.676;5.812;2023-03-15T06:35:37;22.93;;;13.13;;
58250;SDS011;51449;51.676;5.812;2023-03-15T06:37:58;21.27;;;11.53;;
58250;SDS011;51449;51.676;5.812;2023-03-15T06:40:20;21.57;;;11.50;;
58250;SDS011;51449;51.676;5.812;2023-03-15T06:42:43;22.33;;;11.80;;
58250;SDS011;51449;51.676;5.812;2023-03-15T06:45:07;21.57;;;11.50;;
58250;SDS011;51449;51.676;5.812;2023-03-15T06:47:30;21.33;;;11.38;;
58250;SDS011;51449;51.676;5.812;2023-03-15T06:49:53;20.63;;;11.60;;
58250;SDS011;51449;51.676;5.812;2023-03-15T06:52:17;23.42;;;11.18;;
58250;SDS011;51449;51.676;5.812;2023-03-15T06:54:39;19.33;;;11.43;;
58250;SDS011;51449;51.676;5.812;2023-03-15T06:57:01;20.57;;;11.57;;
58250;SDS011;51449;51.676;5.812;2023-03-15T06:59:23;21.80;;;11.27;;
58250;SDS011;51449;51.676;5.812;2023-03-15T07:01:45;17.80;;;10.80;;
58250;SDS011;51449;51.676;5.812;2023-03-15T07:04:06;17.23;;;10.00;;
58250;SDS011;51449;51.676;5.812;2023-03-15T07:06:29;14.53;;;9.30;;
58250;SDS011;51449;51.676;5.812;2023-03-15T07:08:51;15.97;;;9.03;;
58250;SDS011;51449;51.676;5.812;2023-03-15T07:11:12;14.77;;;8.73;;
58250;SDS011;51449;51.676;5.812;2023-03-15T07:13:34;12.33;;;7.93;;
58250;SDS011;51449;51.676;5.812;2023-03-15T07:15:56;15.77;;;8.33;;
58250;SDS011;51449;51.676;5.812;2023-03-15T07:18:18;13.80;;;8.30;;
58250;SDS011;51449;51.676;5.812;2023-03-15T07:20:39;13.90;;;8.87;;
58250;SDS011;51449;51.676;5.812;2023-03-15T07:23:02;14.53;;;8.80;;
58250;SDS011;51449;51.676;5.812;2023-03-15T07:25:23;15.23;;;8.67;;
58250;SDS011;51449;51.676;5.812;2023-03-15T07:27:46;13.93;;;8.20;;
58250;SDS011;51449;51.676;5.812;2023-03-15T07:30:08;18.03;;;9.37;;
58250;SDS011;51449;51.676;5.812;2023-03-15T07:32:30;14.00;;;8.73;;
58250;SDS011;51449;51.676;5.812;2023-03-15T07:34:53;16.43;;;8.47;;
58250;SDS011;51449;51.676;5.812;2023-03-15T07:37:18;16.00;;;9.13;;
58250;SDS011;51449;51.676;5.812;2023-03-15T07:39:40;14.57;;;8.53;;
58250;SDS011;51449;51.676;5.812;2023-03-15T07:42:01;13.70;;;8.43;;
58250;SDS011;51449;51.676;5.812;2023-03-15T07:44:25;17.45;;;9.13;;
58250;SDS011;51449;51.676;5.812;2023-03-15T07:46:47;14.77;;;8.63;;
58250;SDS011;51449;51.676;5.812;2023-03-15T07:49:09;15.23;;;8.30;;
58250;SDS011;51449;51.676;5.812;2023-03-15T07:51:31;14.37;;;8.73;;
58250;SDS011;51449;51.676;5.812;2023-03-15T07:53:53;17.03;;;8.07;;
58250;SDS011;51449;51.676;5.812;2023-03-15T07:56:14;14.13;;;7.43;;
58250;SDS011;51449;51.676;5.812;2023-03-15T07:58:36;12.67;;;7.00;;
58250;SDS011;51449;51.676;5.812;2023-03-15T08:00:58;12.70;;;8.13;;
58250;SDS011;51449;51.676;5.812;2023-03-15T08:03:21;11.83;;;6.60;;
58250;SDS011;51449;51.676;5.812;2023-03-15T08:05:44;12.98;;;6.93;;
58250;SDS011;51449;51.676;5.812;2023-03-15T08:08:06;12.60;;;7.30;;
58250;SDS011;51449;51.676;5.812;2023-03-15T08:10:28;15.23;;;7.87;;
58250;SDS011;51449;51.676;5.812;2023-03-15T08:12:50;10.73;;;7.00;;
58250;SDS011;51449;51.676;5.812;2023-03-15T08:15:12;14.03;;;6.67;;
58250;SDS011;51449;51.676;5.812;2023-03-15T08:17:36;10.27;;;5.95;;
58250;SDS011;51449;51.676;5.812;2023-03-15T08:19:58;13.93;;;5.53;;
58250;SDS011;51449;51.676;5.812;2023-03-15T08:22:20;14.23;;;6.80;;
58250;SDS011;51449;51.676;5.812;2023-03-15T08:24:41;11.97;;;6.27;;
58250;SDS011;51449;51.676;5.812;2023-03-15T08:27:03;11.27;;;5.83;;
58250;SDS011;51449;51.676;5.812;2023-03-15T08:29:25;12.83;;;6.27;;
58250;SDS011;51449;51.676;5.812;2023-03-15T08:31:48;10.87;;;5.93;;
58250;SDS011;51449;51.676;5.812;2023-03-15T08:34:10;11.10;;;6.20;;
58250;SDS011;51449;51.676;5.812;2023-03-15T08:36:32;13.37;;;5.80;;
58250;SDS011;51449;51.676;5.812;2023-03-15T08:38:54;9.67;;;5.00;;
58250;SDS011;51449;51.676;5.812;2023-03-15T08:41:15;9.97;;;4.90;;
58250;SDS011;51449;51.676;5.812;2023-03-15T08:43:37;9.23;;;4.73;;
58250;SDS011;51449;51.676;5.812;2023-03-15T08:45:59;9.70;;;5.17;;
58250;SDS011;51449;51.676;5.812;2023-03-15T08:48:22;8.63;;;4.27;;
58250;SDS011;51449;51.676;5.812;2023-03-15T08:50:44;8.93;;;5.10;;
58250;SDS011;51449;51.676;5.812;2023-03-15T08:53:06;11.37;;;4.83;;
58250;SDS011;51449;51.676;5.812;2023-03-15T08:55:28;8.10;;;4.50;;
58250;SDS011;51449;51.676;5.812;2023-03-15T08:57:50;12.90;;;4.23;;
58250;SDS011;51449;51.676;5.812;2023-03-15T09:00:11;13.67;;;4.10;;
58250;SDS011;51449;51.676;5.812;2023-03-15T09:02:40;10.53;;;4.73;;
58250;SDS011;51449;51.676;5.812;2023-03-15T09:05:02;12.20;;;5.00;;
58250;SDS011;51449;51.676;5.812;2023-03-15T09:07:27;11.40;;;4.47;;
58250;SDS011;51449;51.676;5.812;2023-03-15T09:09:48;9.40;;;4.13;;
58250;SDS011;51449;51.676;5.812;2023-03-15T09:12:14;12.27;;;4.70;;
58250;SDS011;51449;51.676;5.812;2023-03-15T09:14:38;14.95;;;5.25;;
58250;SDS011;51449;51.676;5.812;2023-03-15T09:16:59;10.23;;;4.70;;
58250;SDS011;51449;51.676;5.812;2023-03-15T09:19:21;11.60;;;4.47;;
58250;SDS011;51449;51.676;5.812;2023-03-15T09:21:42;8.90;;;3.93;;
58250;SDS011;51449;51.676;5.812;2023-03-15T09:24:05;11.43;;;3.40;;
58250;SDS011;51449;51.676;5.812;2023-03-15T09:26:27;9.10;;;3.60;;
58250;SDS011;51449;51.676;5.812;2023-03-15T09:28:48;9.80;;;3.97;;
58250;SDS011;51449;51.676;5.812;2023-03-15T09:31:10;7.63;;;2.60;;
58250;SDS011;51449;51.676;5.812;2023-03-15T09:33:32;7.00;;;3.37;;
58250;SDS011;51449;51.676;5.812;2023-03-15T09:35:54;8.47;;;3.23;;
58250;SDS011;51449;51.676;5.812;2023-03-15T09:38:16;7.10;;;3.00;;
58250;SDS011;51449;51.676;5.812;2023-03-15T09:40:39;9.70;;;2.93;;
58250;SDS011;51449;51.676;5.812;2023-03-15T09:48:39;8.37;;;2.37;;
58250;SDS011;51449;51.676;5.812;2023-03-15T09:51:47;7.75;;;2.67;;
58250;SDS011;51449;51.676;5.812;2023-03-15T09:54:43;8.80;;;2.40;;
58250;SDS011;51449;51.676;5.812;2023-03-15T09:57:22;7.33;;;2.33;;
58250;SDS011;51449;51.676;5.812;2023-03-15T09:59:57;8.50;;;2.20;;
58250;SDS011;51449;51.676;5.812;2023-03-15T10:02:29;8.87;;;2.80;;
58250;SDS011;51449;51.676;5.812;2023-03-15T10:04:53;8.00;;;1.73;;
58250;SDS011;51449;51.676;5.812;2023-03-15T10:07:24;6.23;;;2.17;;
58250;SDS011;51449;51.676;5.812;2023-03-15T10:09:46;10.63;;;2.80;;
58250;SDS011;51449;51.676;5.812;2023-03-15T10:12:12;8.93;;;2.13;;
58250;SDS011;51449;51.676;5.812;2023-03-15T10:14:58;7.50;;;1.77;;
58250;SDS011;51449;51.676;5.812;2023-03-15T10:17:47;10.80;;;1.97;;
58250;SDS011;51449;51.676;5.812;2023-03-15T10:20:20;6.87;;;1.73;;
58250;SDS011;51449;51.676;5.812;2023-03-15T10:22:52;9.97;;;2.20;;
58250;SDS011;51449;51.676;5.812;2023-03-15T10:25:22;5.70;;;1.63;;
58250;SDS011;51449;51.676;5.812;2023-03-15T10:30:30;6.03;;;1.50;;
58250;SDS011;51449;51.676;5.812;2023-03-15T10:32:59;6.03;;;1.30;;
58250;SDS011;51449;51.676;5.812;2023-03-15T10:35:29;4.87;;;1.30;;
58250;SDS011;51449;51.676;5.812;2023-03-15T10:37:52;5.00;;;1.30;;
58250;SDS011;51449;51.676;5.812;2023-03-15T10:40:14;3.70;;;1.20;;
58250;SDS011;51449;51.676;5.812;2023-03-15T10:43:01;4.47;;;1.10;;
58250;SDS011;51449;51.676;5.812;2023-03-15T10:45:31;2.97;;;1.20;;
58250;SDS011;51449;51.676;5.812;2023-03-15T10:47:54;4.67;;;1.27;;
58250;SDS011;51449;51.676;5.812;2023-03-15T10:50:40;7.37;;;1.30;;
58250;SDS011;51449;51.676;5.812;2023-03-15T10:53:07;5.37;;;1.80;;
58250;SDS011;51449;51.676;5.812;2023-03-15T10:55:32;7.17;;;1.50;;
58250;SDS011;51449;51.676;5.812;2023-03-15T10:58:19;5.17;;;1.43;;
58250;SDS011;51449;51.676;5.812;2023-03-15T11:00:58;3.17;;;1.00;;
58250;SDS011;51449;51.676;5.812;2023-03-15T11:03:29;5.00;;;1.33;;
58250;SDS011;51449;51.676;5.812;2023-03-15T11:05:52;4.07;;;1.23;;
58250;SDS011;51449;51.676;5.812;2023-03-15T11:08:20;4.27;;;1.43;;
58250;SDS011;51449;51.676;5.812;2023-03-15T11:10:45;5.93;;;1.20;;
58250;SDS011;51449;51.676;5.812;2023-03-15T11:13:20;8.68;;;1.80;;
58250;SDS011;51449;51.676;5.812;2023-03-15T11:15:56;4.37;;;1.60;;
58250;SDS011;51449;51.676;5.812;2023-03-15T11:18:25;3.27;;;1.50;;
58250;SDS011;51449;51.676;5.812;2023-03-15T11:21:15;5.83;;;1.83;;
58250;SDS011;51449;51.676;5.812;2023-03-15T11:23:44;6.07;;;1.87;;
58250;SDS011;51449;51.676;5.812;2023-03-15T11:26:28;4.17;;;1.57;;
58250;SDS011;51449;51.676;5.812;2023-03-15T11:28:59;7.07;;;1.60;;
58250;SDS011;51449;51.676;5.812;2023-03-15T11:31:33;6.53;;;1.37;;
58250;SDS011;51449;51.676;5.812;2023-03-15T11:34:02;5.47;;;1.20;;
58250;SDS011;51449;51.676;5.812;2023-03-15T11:36:32;6.90;;;1.70;;
58250;SDS011;51449;51.676;5.812;2023-03-15T11:39:00;6.20;;;1.30;;
58250;SDS011;51449;51.676;5.812;2023-03-15T11:41:28;7.47;;;1.60;;
58250;SDS011;51449;51.676;5.812;2023-03-15T11:47:00;6.33;;;1.57;;
58250;SDS011;51449;51.676;5.812;2023-03-15T11:49:40;6.07;;;1.73;;
58250;SDS011;51449;51.676;5.812;2023-03-15T11:52:15;4.93;;;1.53;;
58250;SDS011;51449;51.676;5.812;2023-03-15T11:54:41;8.90;;;2.13;;
58250;SDS011;51449;51.676;5.812;2023-03-15T11:57:07;4.17;;;1.50;;
58250;SDS011;51449;51.676;5.812;2023-03-15T12:00:25;5.93;;;1.33;;
58250;SDS011;51449;51.676;5.812;2023-03-15T12:06:12;7.40;;;1.60;;
58250;SDS011;51449;51.676;5.812;2023-03-15T12:08:59;4.40;;;1.40;;
58250;SDS011;51449;51.676;5.812;2023-03-15T12:16:48;2.77;;;1.40;;
58250;SDS011;51449;51.676;5.812;2023-03-15T12:19:13;5.57;;;1.43;;
58250;SDS011;51449;51.676;5.812;2023-03-15T12:21:39;9.00;;;1.80;;
58250;SDS011;51449;51.676;5.812;2023-03-15T12:24:06;4.13;;;1.27;;
58250;SDS011;51449;51.676;5.812;2023-03-15T12:26:43;4.90;;;1.17;;
58250;SDS011;51449;51.676;5.812;2023-03-15T12:29:13;3.30;;;1.30;;
58250;SDS011;51449;51.676;5.812;2023-03-15T12:34:14;6.40;;;1.30;;
58250;SDS011;51449;51.676;5.812;2023-03-15T12:36:46;8.27;;;1.47;;
58250;SDS011;51449;51.676;5.812;2023-03-15T12:47:02;2.63;;;1.23;;
58250;SDS011;51449;51.676;5.812;2023-03-15T12:49:35;4.43;;;1.43;;
58250;SDS011;51449;51.676;5.812;2023-03-15T12:52:04;5.60;;;1.13;;
58250;SDS011;51449;51.676;5.812;2023-03-15T12:54:50;4.30;;;1.23;;
58250;SDS011;51449;51.676;5.812;2023-03-15T12:57:28;3.30;;;1.63;;
58250;SDS011;51449;51.676;5.812;2023-03-15T13:02:33;5.40;;;1.40;;
58250;SDS011;51449;51.676;5.812;2023-03-15T13:16:31;4.03;;;1.07;;
58250;SDS011;51449;51.676;5.812;2023-03-15T13:21:35;3.10;;;1.27;;
58250;SDS011;51449;51.676;5.812;2023-03-15T13:24:17;3.40;;;1.00;;
58250;SDS011;51449;51.676;5.812;2023-03-15T13:26:57;2.17;;;1.07;;
58250;SDS011;51449;51.676;5.812;2023-03-15T13:29:31;3.53;;;1.10;;
58250;SDS011;51449;51.676;5.812;2023-03-15T13:32:01;4.03;;;1.00;;
58250;SDS011;51449;51.676;5.812;2023-03-15T13:34:34;3.43;;;0.97;;
58250;SDS011;51449;51.676;5.812;2023-03-15T13:36:56;3.70;;;1.10;;
58250;SDS011;51449;51.676;5.812;2023-03-15T13:39:23;4.37;;;1.50;;
58250;SDS011;51449;51.676;5.812;2023-03-15T13:41:48;3.17;;;1.10;;
58250;SDS011;51449;51.676;5.812;2023-03-15T13:44:19;4.30;;;1.30;;
58250;SDS011;51449;51.676;5.812;2023-03-15T13:46:44;3.50;;;1.13;;
58250;SDS011;51449;51.676;5.812;2023-03-15T13:49:11;3.83;;;1.00;;
58250;SDS011;51449;51.676;5.812;2023-03-15T13:51:34;3.70;;;1.30;;
58250;SDS011;51449;51.676;5.812;2023-03-15T13:56:36;3.63;;;1.20;;
58250;SDS011;51449;51.676;5.812;2023-03-15T13:59:10;3.65;;;1.38;;
58250;SDS011;51449;51.676;5.812;2023-03-15T14:01:35;4.10;;;1.27;;
58250;SDS011;51449;51.676;5.812;2023-03-15T14:04:06;5.57;;;1.23;;
58250;SDS011;51449;51.676;5.812;2023-03-15T14:06:36;4.63;;;1.40;;
58250;SDS011;51449;51.676;5.812;2023-03-15T14:09:06;4.03;;;1.33;;
58250;SDS011;51449;51.676;5.812;2023-03-15T14:11:37;2.93;;;1.10;;
58250;SDS011;51449;51.676;5.812;2023-03-15T14:14:01;2.83;;;1.33;;
58250;SDS011;51449;51.676;5.812;2023-03-15T14:19:28;2.00;;;1.10;;
58250;SDS011;51449;51.676;5.812;2023-03-15T14:21:58;2.07;;;1.00;;
58250;SDS011;51449;51.676;5.812;2023-03-15T14:24:32;2.83;;;1.07;;
58250;SDS011;51449;51.676;5.812;2023-03-15T14:26:59;4.10;;;1.27;;
58250;SDS011;51449;51.676;5.812;2023-03-15T14:29:36;2.70;;;1.10;;
58250;SDS011;51449;51.676;5.812;2023-03-15T14:32:06;3.97;;;1.73;;
58250;SDS011;51449;51.676;5.812;2023-03-15T14:34:45;4.43;;;1.60;;
58250;SDS011;51449;51.676;5.812;2023-03-15T14:37:26;2.88;;;1.50;;
58250;SDS011;51449;51.676;5.812;2023-03-15T14:40:34;1.43;;;0.80;;
58250;SDS011;51449;51.676;5.812;2023-03-15T14:43:01;4.63;;;1.17;;
58250;SDS011;51449;51.676;5.812;2023-03-15T14:47:48;7.63;;;1.30;;
58250;SDS011;51449;51.676;5.812;2023-03-15T14:50:21;5.00;;;1.40;;
58250;SDS011;51449;51.676;5.812;2023-03-15T14:52:44;2.43;;;1.20;;
58250;SDS011;51449;51.676;5.812;2023-03-15T14:55:14;2.97;;;1.20;;
58250;SDS011;51449;51.676;5.812;2023-03-15T14:57:39;3.50;;;1.40;;
58250;SDS011;51449;51.676;5.812;2023-03-15T15:00:01;5.70;;;1.40;;
58250;SDS011;51449;51.676;5.812;2023-03-15T15:02:24;2.00;;;1.20;;
58250;SDS011;51449;51.676;5.812;2023-03-15T15:04:46;3.57;;;1.13;;
58250;SDS011;51449;51.676;5.812;2023-03-15T15:07:12;3.00;;;1.33;;
58250;SDS011;51449;51.676;5.812;2023-03-15T15:09:35;2.93;;;1.10;;
58250;SDS011;51449;51.676;5.812;2023-03-15T15:12:00;3.17;;;1.40;;
58250;SDS011;51449;51.676;5.812;2023-03-15T15:14:21;3.40;;;1.40;;
58250;SDS011;51449;51.676;5.812;2023-03-15T15:16:44;3.40;;;1.03;;
58250;SDS011;51449;51.676;5.812;2023-03-15T15:19:06;2.73;;;1.10;;
58250;SDS011;51449;51.676;5.812;2023-03-15T15:21:29;4.53;;;1.07;;
58250;SDS011;51449;51.676;5.812;2023-03-15T15:23:54;3.43;;;1.20;;
58250;SDS011;51449;51.676;5.812;2023-03-15T15:26:20;2.23;;;1.30;;
58250;SDS011;51449;51.676;5.812;2023-03-15T15:28:46;4.33;;;1.10;;
58250;SDS011;51449;51.676;5.812;2023-03-15T15:31:12;4.60;;;1.17;;
58250;SDS011;51449;51.676;5.812;2023-03-15T15:33:37;2.17;;;1.10;;
58250;SDS011;51449;51.676;5.812;2023-03-15T15:35:59;1.93;;;1.10;;
58250;SDS011;51449;51.676;5.812;2023-03-15T15:38:23;3.53;;;1.52;;
58250;SDS011;51449;51.676;5.812;2023-03-15T15:40:55;4.90;;;1.10;;
58250;SDS011;51449;51.676;5.812;2023-03-15T15:43:16;2.17;;;1.10;;
58250;SDS011;51449;51.676;5.812;2023-03-15T15:45:39;3.03;;;1.00;;
58250;SDS011;51449;51.676;5.812;2023-03-15T15:48:01;5.30;;;1.00;;
58250;SDS011;51449;51.676;5.812;2023-03-15T15:50:26;4.17;;;1.27;;
58250;SDS011;51449;51.676;5.812;2023-03-15T15:52:49;6.80;;;1.37;;
58250;SDS011;51449;51.676;5.812;2023-03-15T15:55:14;3.20;;;1.37;;